sensor_id;sensor_type;location;lat;lon;timestamp;P1;durP1;ratioP1;P2;durP2;ratioP2
60502;SDS011;51448;51.660;5.824;2022-09-13T00:01:05;15.40;;;13.35;;
60502;SDS011;51448;51.660;5.824;2022-09-13T00:03:33;16.73;;;13.35;;
60502;SDS011;51448;51.660;5.824;2022-09-13T00:06:09;15.90;;;14.20;;
60502;SDS011;51448;51.660;5.824;2022-09-13T00:08:45;16.10;;;14.05;;
60502;SDS011;51448;51.660;5.824;2022-09-13T00:11:17;17.83;;;15.60;;
60502;SDS011;51448;51.660;5.824;2022-09-13T00:13:52;18.17;;;16.05;;
60502;SDS011;51448;51.660;5.824;2022-09-13T00:16:22;18.98;;;14.82;;
60502;SDS011;51448;51.660;5.824;2022-09-13T00:18:52;21.30;;;16.63;;
60502;SDS011;51448;51.660;5.824;2022-09-13T00:21:21;16.75;;;14.63;;
60502;SDS011;51448;51.660;5.824;2022-09-13T00:23:51;18.60;;;16.60;;
60502;SDS011;51448;51.660;5.824;2022-09-13T00:26:21;18.65;;;16.42;;
60502;SDS011;51448;51.660;5.824;2022-09-13T00:28:55;18.92;;;16.90;;
60502;SDS011;51448;51.660;5.824;2022-09-13T00:31:26;17.35;;;15.48;;
60502;SDS011;51448;51.660;5.824;2022-09-13T00:33:55;17.75;;;15.95;;
60502;SDS011;51448;51.660;5.824;2022-09-13T00:36:26;17.00;;;15.30;;
60502;SDS011;51448;51.660;5.824;2022-09-13T00:38:54;16.90;;;14.75;;
60502;SDS011;51448;51.660;5.824;2022-09-13T00:41:21;18.13;;;14.05;;
60502;SDS011;51448;51.660;5.824;2022-09-13T00:46:26;16.38;;;14.68;;
60502;SDS011;51448;51.660;5.824;2022-09-13T00:49:13;16.23;;;14.33;;
60502;SDS011;51448;51.660;5.824;2022-09-13T00:51:51;17.52;;;14.80;;
60502;SDS011;51448;51.660;5.824;2022-09-13T00:54:27;15.90;;;14.15;;
60502;SDS011;51448;51.660;5.824;2022-09-13T00:57:02;16.52;;;13.48;;
60502;SDS011;51448;51.660;5.824;2022-09-13T00:59:44;15.98;;;12.45;;
60502;SDS011;51448;51.660;5.824;2022-09-13T01:02:39;17.70;;;13.13;;
60502;SDS011;51448;51.660;5.824;2022-09-13T01:05:13;16.05;;;12.80;;
60502;SDS011;51448;51.660;5.824;2022-09-13T01:07:44;15.77;;;13.32;;
60502;SDS011;51448;51.660;5.824;2022-09-13T01:10:12;14.48;;;12.68;;
60502;SDS011;51448;51.660;5.824;2022-09-13T01:15:19;15.32;;;12.63;;
60502;SDS011;51448;51.660;5.824;2022-09-13T01:17:47;13.93;;;12.38;;
60502;SDS011;51448;51.660;5.824;2022-09-13T01:20:17;14.57;;;12.30;;
60502;SDS011;51448;51.660;5.824;2022-09-13T01:25:52;14.05;;;12.55;;
60502;SDS011;51448;51.660;5.824;2022-09-13T01:31:57;13.18;;;11.02;;
60502;SDS011;51448;51.660;5.824;2022-09-13T01:34:59;13.93;;;11.82;;
60502;SDS011;51448;51.660;5.824;2022-09-13T01:37:50;13.07;;;11.63;;
60502;SDS011;51448;51.660;5.824;2022-09-13T01:43:39;13.07;;;11.20;;
60502;SDS011;51448;51.660;5.824;2022-09-13T01:46:45;12.90;;;11.32;;
60502;SDS011;51448;51.660;5.824;2022-09-13T01:49:29;12.55;;;11.25;;
60502;SDS011;51448;51.660;5.824;2022-09-13T01:52:24;13.05;;;10.88;;
60502;SDS011;51448;51.660;5.824;2022-09-13T01:55:24;13.55;;;11.25;;
60502;SDS011;51448;51.660;5.824;2022-09-13T02:00:53;13.73;;;10.93;;
60502;SDS011;51448;51.660;5.824;2022-09-13T02:07:06;15.63;;;10.05;;
60502;SDS011;51448;51.660;5.824;2022-09-13T02:09:41;13.23;;;10.30;;
60502;SDS011;51448;51.660;5.824;2022-09-13T02:12:16;12.68;;;11.35;;
60502;SDS011;51448;51.660;5.824;2022-09-13T02:17:45;12.23;;;10.73;;
60502;SDS011;51448;51.660;5.824;2022-09-13T02:20:26;12.85;;;10.57;;
60502;SDS011;51448;51.660;5.824;2022-09-13T02:23:03;12.48;;;10.95;;
60502;SDS011;51448;51.660;5.824;2022-09-13T02:25:41;15.80;;;10.73;;
60502;SDS011;51448;51.660;5.824;2022-09-13T02:28:14;11.77;;;10.57;;
60502;SDS011;51448;51.660;5.824;2022-09-13T02:30:50;14.82;;;10.95;;
60502;SDS011;51448;51.660;5.824;2022-09-13T02:33:24;14.45;;;10.88;;
60502;SDS011;51448;51.660;5.824;2022-09-13T02:35:59;12.70;;;10.73;;
60502;SDS011;51448;51.660;5.824;2022-09-13T02:41:24;16.83;;;10.73;;
60502;SDS011;51448;51.660;5.824;2022-09-13T02:44:10;12.90;;;10.13;;
60502;SDS011;51448;51.660;5.824;2022-09-13T02:46:46;12.57;;;10.25;;
60502;SDS011;51448;51.660;5.824;2022-09-13T03:01:56;11.82;;;9.48;;
60502;SDS011;51448;51.660;5.824;2022-09-13T03:04:38;12.07;;;9.70;;
60502;SDS011;51448;51.660;5.824;2022-09-13T03:07:10;10.65;;;9.55;;
60502;SDS011;51448;51.660;5.824;2022-09-13T03:09:49;11.63;;;9.90;;
60502;SDS011;51448;51.660;5.824;2022-09-13T03:12:32;13.65;;;10.52;;
60502;SDS011;51448;51.660;5.824;2022-09-13T03:25:07;11.98;;;9.52;;
60502;SDS011;51448;51.660;5.824;2022-09-13T03:31:12;12.60;;;9.85;;
60502;SDS011;51448;51.660;5.824;2022-09-13T03:33:56;11.63;;;9.80;;
60502;SDS011;51448;51.660;5.824;2022-09-13T03:42:23;11.85;;;9.00;;
60502;SDS011;51448;51.660;5.824;2022-09-13T03:45:06;16.52;;;9.20;;
60502;SDS011;51448;51.660;5.824;2022-09-13T03:47:43;12.55;;;10.15;;
60502;SDS011;51448;51.660;5.824;2022-09-13T03:50:17;13.32;;;9.90;;
60502;SDS011;51448;51.660;5.824;2022-09-13T03:52:50;11.98;;;9.95;;
60502;SDS011;51448;51.660;5.824;2022-09-13T03:55:27;11.63;;;9.70;;
60502;SDS011;51448;51.660;5.824;2022-09-13T03:57:59;11.07;;;9.30;;
60502;SDS011;51448;51.660;5.824;2022-09-13T04:00:27;12.52;;;9.85;;
60502;SDS011;51448;51.660;5.824;2022-09-13T04:02:55;13.38;;;9.60;;
60502;SDS011;51448;51.660;5.824;2022-09-13T04:05:23;13.82;;;9.57;;
60502;SDS011;51448;51.660;5.824;2022-09-13T04:07:50;13.18;;;10.07;;
60502;SDS011;51448;51.660;5.824;2022-09-13T04:10:18;12.90;;;9.60;;
60502;SDS011;51448;51.660;5.824;2022-09-13T04:12:45;11.70;;;9.05;;
60502;SDS011;51448;51.660;5.824;2022-09-13T04:15:13;10.75;;;8.82;;
60502;SDS011;51448;51.660;5.824;2022-09-13T04:17:40;13.00;;;8.80;;
60502;SDS011;51448;51.660;5.824;2022-09-13T04:20:08;11.02;;;9.23;;
60502;SDS011;51448;51.660;5.824;2022-09-13T04:22:37;10.07;;;8.60;;
60502;SDS011;51448;51.660;5.824;2022-09-13T04:25:05;12.75;;;10.23;;
60502;SDS011;51448;51.660;5.824;2022-09-13T04:27:33;12.05;;;9.15;;
60502;SDS011;51448;51.660;5.824;2022-09-13T04:30:01;11.20;;;8.98;;
60502;SDS011;51448;51.660;5.824;2022-09-13T04:32:29;12.20;;;10.07;;
60502;SDS011;51448;51.660;5.824;2022-09-13T04:34:57;12.43;;;9.50;;
60502;SDS011;51448;51.660;5.824;2022-09-13T04:37:24;11.38;;;8.80;;
60502;SDS011;51448;51.660;5.824;2022-09-13T04:39:52;12.07;;;9.30;;
60502;SDS011;51448;51.660;5.824;2022-09-13T04:42:20;12.70;;;9.52;;
60502;SDS011;51448;51.660;5.824;2022-09-13T04:44:47;11.85;;;10.07;;
60502;SDS011;51448;51.660;5.824;2022-09-13T04:47:16;12.80;;;9.55;;
60502;SDS011;51448;51.660;5.824;2022-09-13T04:49:43;11.30;;;9.60;;
60502;SDS011;51448;51.660;5.824;2022-09-13T04:52:11;14.95;;;10.20;;
60502;SDS011;51448;51.660;5.824;2022-09-13T04:54:38;12.35;;;9.50;;
60502;SDS011;51448;51.660;5.824;2022-09-13T04:57:06;10.63;;;9.50;;
60502;SDS011;51448;51.660;5.824;2022-09-13T04:59:33;15.00;;;9.27;;
60502;SDS011;51448;51.660;5.824;2022-09-13T05:02:01;10.25;;;9.07;;
60502;SDS011;51448;51.660;5.824;2022-09-13T05:04:28;13.77;;;9.48;;
60502;SDS011;51448;51.660;5.824;2022-09-13T05:06:56;12.07;;;9.38;;
60502;SDS011;51448;51.660;5.824;2022-09-13T05:09:25;13.30;;;9.65;;
60502;SDS011;51448;51.660;5.824;2022-09-13T05:11:52;12.73;;;9.45;;
60502;SDS011;51448;51.660;5.824;2022-09-13T05:14:20;16.55;;;9.95;;
60502;SDS011;51448;51.660;5.824;2022-09-13T05:16:48;11.15;;;9.30;;
60502;SDS011;51448;51.660;5.824;2022-09-13T05:19:15;14.27;;;9.75;;
60502;SDS011;51448;51.660;5.824;2022-09-13T05:21:43;11.63;;;9.90;;
60502;SDS011;51448;51.660;5.824;2022-09-13T05:24:11;12.52;;;9.75;;
60502;SDS011;51448;51.660;5.824;2022-09-13T05:26:38;13.43;;;9.95;;
60502;SDS011;51448;51.660;5.824;2022-09-13T05:29:07;13.93;;;10.20;;
60502;SDS011;51448;51.660;5.824;2022-09-13T05:31:36;14.15;;;9.80;;
60502;SDS011;51448;51.660;5.824;2022-09-13T05:34:07;12.85;;;9.30;;
60502;SDS011;51448;51.660;5.824;2022-09-13T05:36:38;13.27;;;9.95;;
60502;SDS011;51448;51.660;5.824;2022-09-13T05:39:07;12.68;;;9.80;;
60502;SDS011;51448;51.660;5.824;2022-09-13T05:42:00;17.33;;;9.73;;
60502;SDS011;51448;51.660;5.824;2022-09-13T05:44:28;12.18;;;9.82;;
60502;SDS011;51448;51.660;5.824;2022-09-13T05:46:55;15.43;;;10.57;;
60502;SDS011;51448;51.660;5.824;2022-09-13T05:49:23;13.65;;;9.90;;
60502;SDS011;51448;51.660;5.824;2022-09-13T05:51:51;12.45;;;9.82;;
60502;SDS011;51448;51.660;5.824;2022-09-13T05:54:18;12.57;;;10.60;;
60502;SDS011;51448;51.660;5.824;2022-09-13T05:56:46;14.10;;;11.23;;
60502;SDS011;51448;51.660;5.824;2022-09-13T05:59:13;14.35;;;10.93;;
60502;SDS011;51448;51.660;5.824;2022-09-13T06:01:42;17.15;;;11.43;;
60502;SDS011;51448;51.660;5.824;2022-09-13T06:04:11;12.65;;;10.40;;
60502;SDS011;51448;51.660;5.824;2022-09-13T06:06:38;13.55;;;11.18;;
60502;SDS011;51448;51.660;5.824;2022-09-13T06:09:06;12.98;;;11.02;;
60502;SDS011;51448;51.660;5.824;2022-09-13T06:11:35;11.32;;;10.13;;
60502;SDS011;51448;51.660;5.824;2022-09-13T06:14:02;15.45;;;11.05;;
60502;SDS011;51448;51.660;5.824;2022-09-13T06:16:30;13.52;;;11.35;;
60502;SDS011;51448;51.660;5.824;2022-09-13T06:18:57;13.43;;;10.63;;
60502;SDS011;51448;51.660;5.824;2022-09-13T06:21:25;14.85;;;10.27;;
60502;SDS011;51448;51.660;5.824;2022-09-13T06:23:55;14.52;;;11.15;;
60502;SDS011;51448;51.660;5.824;2022-09-13T06:26:23;17.95;;;11.80;;
60502;SDS011;51448;51.660;5.824;2022-09-13T06:28:55;14.85;;;11.45;;
60502;SDS011;51448;51.660;5.824;2022-09-13T06:31:25;16.42;;;11.98;;
60502;SDS011;51448;51.660;5.824;2022-09-13T06:34:00;13.77;;;12.27;;
60502;SDS011;51448;51.660;5.824;2022-09-13T06:36:32;15.57;;;12.05;;
60502;SDS011;51448;51.660;5.824;2022-09-13T06:39:00;19.35;;;13.00;;
60502;SDS011;51448;51.660;5.824;2022-09-13T06:41:28;18.17;;;13.23;;
60502;SDS011;51448;51.660;5.824;2022-09-13T06:43:56;16.35;;;12.82;;
60502;SDS011;51448;51.660;5.824;2022-09-13T06:46:27;14.38;;;12.80;;
60502;SDS011;51448;51.660;5.824;2022-09-13T06:48:58;20.92;;;14.52;;
60502;SDS011;51448;51.660;5.824;2022-09-13T06:51:28;21.53;;;15.20;;
60502;SDS011;51448;51.660;5.824;2022-09-13T06:53:56;16.27;;;13.18;;
60502;SDS011;51448;51.660;5.824;2022-09-13T06:56:29;16.05;;;14.30;;
60502;SDS011;51448;51.660;5.824;2022-09-13T06:59:03;18.02;;;14.32;;
60502;SDS011;51448;51.660;5.824;2022-09-13T07:01:35;18.52;;;15.27;;
60502;SDS011;51448;51.660;5.824;2022-09-13T07:04:08;17.98;;;15.15;;
60502;SDS011;51448;51.660;5.824;2022-09-13T07:06:42;21.88;;;14.57;;
60502;SDS011;51448;51.660;5.824;2022-09-13T07:09:15;17.10;;;14.10;;
60502;SDS011;51448;51.660;5.824;2022-09-13T07:11:48;20.27;;;17.55;;
60502;SDS011;51448;51.660;5.824;2022-09-13T07:14:21;21.00;;;16.77;;
60502;SDS011;51448;51.660;5.824;2022-09-13T07:16:51;21.77;;;16.20;;
60502;SDS011;51448;51.660;5.824;2022-09-13T07:19:22;20.23;;;17.35;;
60502;SDS011;51448;51.660;5.824;2022-09-13T07:21:55;21.05;;;17.38;;
60502;SDS011;51448;51.660;5.824;2022-09-13T07:24:23;22.48;;;17.27;;
60502;SDS011;51448;51.660;5.824;2022-09-13T07:26:53;18.55;;;16.67;;
60502;SDS011;51448;51.660;5.824;2022-09-13T07:29:21;23.20;;;17.00;;
60502;SDS011;51448;51.660;5.824;2022-09-13T07:31:50;23.27;;;18.40;;
60502;SDS011;51448;51.660;5.824;2022-09-13T07:34:22;26.02;;;19.17;;
60502;SDS011;51448;51.660;5.824;2022-09-13T07:36:52;25.97;;;20.23;;
60502;SDS011;51448;51.660;5.824;2022-09-13T07:39:20;22.70;;;19.35;;
60502;SDS011;51448;51.660;5.824;2022-09-13T07:41:49;23.40;;;20.40;;
60502;SDS011;51448;51.660;5.824;2022-09-13T07:44:17;26.63;;;19.55;;
60502;SDS011;51448;51.660;5.824;2022-09-13T07:46:45;25.63;;;21.48;;
60502;SDS011;51448;51.660;5.824;2022-09-13T07:49:15;24.38;;;19.73;;
60502;SDS011;51448;51.660;5.824;2022-09-13T07:57:01;31.27;;;22.33;;
60502;SDS011;51448;51.660;5.824;2022-09-13T07:59:29;24.42;;;21.48;;
60502;SDS011;51448;51.660;5.824;2022-09-13T08:01:56;25.02;;;22.48;;
60502;SDS011;51448;51.660;5.824;2022-09-13T08:04:24;24.70;;;22.10;;
60502;SDS011;51448;51.660;5.824;2022-09-13T08:06:52;25.48;;;21.50;;
60502;SDS011;51448;51.660;5.824;2022-09-13T08:09:19;25.27;;;22.52;;
60502;SDS011;51448;51.660;5.824;2022-09-13T08:11:50;26.05;;;22.48;;
60502;SDS011;51448;51.660;5.824;2022-09-13T08:14:19;26.02;;;21.95;;
60502;SDS011;51448;51.660;5.824;2022-09-13T08:16:48;27.13;;;22.85;;
60502;SDS011;51448;51.660;5.824;2022-09-13T08:19:17;27.67;;;22.80;;
60502;SDS011;51448;51.660;5.824;2022-09-13T08:21:45;25.23;;;22.50;;
60502;SDS011;51448;51.660;5.824;2022-09-13T08:24:17;28.05;;;23.27;;
60502;SDS011;51448;51.660;5.824;2022-09-13T08:26:49;26.42;;;22.77;;
60502;SDS011;51448;51.660;5.824;2022-09-13T08:29:21;26.80;;;24.00;;
60502;SDS011;51448;51.660;5.824;2022-09-13T08:31:48;27.40;;;23.08;;
60502;SDS011;51448;51.660;5.824;2022-09-13T08:34:16;26.17;;;22.90;;
60502;SDS011;51448;51.660;5.824;2022-09-13T08:36:44;28.02;;;23.05;;
60502;SDS011;51448;51.660;5.824;2022-09-13T08:39:11;26.73;;;22.60;;
60502;SDS011;51448;51.660;5.824;2022-09-13T08:44:27;25.40;;;22.25;;
60502;SDS011;51448;51.660;5.824;2022-09-13T08:50:14;24.13;;;21.25;;
60502;SDS011;51448;51.660;5.824;2022-09-13T08:52:57;22.75;;;20.05;;
60502;SDS011;51448;51.660;5.824;2022-09-13T08:55:46;23.80;;;20.15;;
60502;SDS011;51448;51.660;5.824;2022-09-13T09:15:15;24.17;;;20.60;;
60502;SDS011;51448;51.660;5.824;2022-09-13T09:17:59;34.10;;;28.00;;
60502;SDS011;51448;51.660;5.824;2022-09-13T09:20:41;27.47;;;22.23;;
60502;SDS011;51448;51.660;5.824;2022-09-13T09:25:53;24.58;;;18.92;;
60502;SDS011;51448;51.660;5.824;2022-09-13T09:28:37;27.13;;;22.17;;
60502;SDS011;51448;51.660;5.824;2022-09-13T09:31:09;25.00;;;20.13;;
60502;SDS011;51448;51.660;5.824;2022-09-13T09:34:06;22.73;;;18.50;;
60502;SDS011;51448;51.660;5.824;2022-09-13T09:37:16;23.40;;;16.58;;
60502;SDS011;51448;51.660;5.824;2022-09-13T09:39:51;19.88;;;15.18;;
60502;SDS011;51448;51.660;5.824;2022-09-13T09:42:22;19.00;;;15.50;;
60502;SDS011;51448;51.660;5.824;2022-09-13T09:44:59;20.23;;;15.43;;
60502;SDS011;51448;51.660;5.824;2022-09-13T09:47:40;18.83;;;15.02;;
60502;SDS011;51448;51.660;5.824;2022-09-13T09:50:14;21.30;;;15.88;;
60502;SDS011;51448;51.660;5.824;2022-09-13T09:55:28;174.32;;;28.92;;
60502;SDS011;51448;51.660;5.824;2022-09-13T10:00:35;21.15;;;15.00;;
60502;SDS011;51448;51.660;5.824;2022-09-13T10:03:17;19.63;;;14.85;;
60502;SDS011;51448;51.660;5.824;2022-09-13T10:05:50;17.15;;;14.15;;
60502;SDS011;51448;51.660;5.824;2022-09-13T10:08:30;18.45;;;14.65;;
60502;SDS011;51448;51.660;5.824;2022-09-13T10:11:03;16.02;;;13.63;;
60502;SDS011;51448;51.660;5.824;2022-09-13T10:13:32;17.65;;;13.90;;
60502;SDS011;51448;51.660;5.824;2022-09-13T10:16:34;16.42;;;13.80;;
60502;SDS011;51448;51.660;5.824;2022-09-13T10:21:58;15.85;;;11.10;;
60502;SDS011;51448;51.660;5.824;2022-09-13T10:24:31;16.42;;;12.00;;
60502;SDS011;51448;51.660;5.824;2022-09-13T10:26:59;14.25;;;11.52;;
60502;SDS011;51448;51.660;5.824;2022-09-13T10:29:30;15.88;;;11.45;;
60502;SDS011;51448;51.660;5.824;2022-09-13T10:31:59;12.70;;;9.65;;
60502;SDS011;51448;51.660;5.824;2022-09-13T10:34:35;12.52;;;8.50;;
60502;SDS011;51448;51.660;5.824;2022-09-13T10:40:01;10.57;;;8.77;;
60502;SDS011;51448;51.660;5.824;2022-09-13T10:42:35;10.57;;;7.95;;
60502;SDS011;51448;51.660;5.824;2022-09-13T10:45:04;12.18;;;8.73;;
60502;SDS011;51448;51.660;5.824;2022-09-13T10:47:45;13.55;;;8.60;;
60502;SDS011;51448;51.660;5.824;2022-09-13T10:52:51;10.38;;;7.75;;
60502;SDS011;51448;51.660;5.824;2022-09-13T10:55:31;10.32;;;8.30;;
60502;SDS011;51448;51.660;5.824;2022-09-13T11:09:14;8.05;;;4.88;;
60502;SDS011;51448;51.660;5.824;2022-09-13T11:20:23;8.40;;;6.35;;
60502;SDS011;51448;51.660;5.824;2022-09-13T11:23:22;9.82;;;7.07;;
60502;SDS011;51448;51.660;5.824;2022-09-13T11:32:11;14.82;;;8.70;;
60502;SDS011;51448;51.660;5.824;2022-09-13T11:37:57;12.93;;;8.40;;
60502;SDS011;51448;51.660;5.824;2022-09-13T11:43:55;13.20;;;7.90;;
60502;SDS011;51448;51.660;5.824;2022-09-13T11:55:57;11.50;;;8.65;;
60502;SDS011;51448;51.660;5.824;2022-09-13T11:58:35;11.82;;;9.05;;
60502;SDS011;51448;51.660;5.824;2022-09-13T12:01:12;10.77;;;8.27;;
60502;SDS011;51448;51.660;5.824;2022-09-13T12:04:04;11.45;;;7.50;;
60502;SDS011;51448;51.660;5.824;2022-09-13T12:06:44;12.48;;;7.65;;
60502;SDS011;51448;51.660;5.824;2022-09-13T12:09:24;10.15;;;7.53;;
60502;SDS011;51448;51.660;5.824;2022-09-13T12:12:02;11.50;;;7.70;;
60502;SDS011;51448;51.660;5.824;2022-09-13T12:14:51;11.00;;;7.30;;
60502;SDS011;51448;51.660;5.824;2022-09-13T12:17:28;7.70;;;5.93;;
60502;SDS011;51448;51.660;5.824;2022-09-13T12:19:57;12.23;;;6.57;;
60502;SDS011;51448;51.660;5.824;2022-09-13T12:22:28;8.82;;;6.30;;
60502;SDS011;51448;51.660;5.824;2022-09-13T12:25:03;9.63;;;6.88;;
60502;SDS011;51448;51.660;5.824;2022-09-13T12:27:54;11.88;;;7.85;;
60502;SDS011;51448;51.660;5.824;2022-09-13T12:30:41;10.55;;;7.65;;
60502;SDS011;51448;51.660;5.824;2022-09-13T12:33:23;11.43;;;8.07;;
60502;SDS011;51448;51.660;5.824;2022-09-13T12:48:03;12.00;;;7.63;;
60502;SDS011;51448;51.660;5.824;2022-09-13T12:56:53;10.32;;;6.85;;
60502;SDS011;51448;51.660;5.824;2022-09-13T12:59:58;10.93;;;7.15;;
60502;SDS011;51448;51.660;5.824;2022-09-13T13:05:27;12.27;;;6.93;;
60502;SDS011;51448;51.660;5.824;2022-09-13T13:11:03;12.02;;;7.97;;
60502;SDS011;51448;51.660;5.824;2022-09-13T13:13:39;10.65;;;7.55;;
60502;SDS011;51448;51.660;5.824;2022-09-13T13:16:21;9.52;;;7.53;;
60502;SDS011;51448;51.660;5.824;2022-09-13T13:19:25;11.23;;;7.93;;
60502;SDS011;51448;51.660;5.824;2022-09-13T13:25:26;10.37;;;6.67;;
60502;SDS011;51448;51.660;5.824;2022-09-13T13:28:47;11.68;;;6.85;;
60502;SDS011;51448;51.660;5.824;2022-09-13T13:33:52;7.75;;;5.72;;
60502;SDS011;51448;51.660;5.824;2022-09-13T13:36:25;8.52;;;4.90;;
60502;SDS011;51448;51.660;5.824;2022-09-13T13:38:59;8.95;;;5.45;;
60502;SDS011;51448;51.660;5.824;2022-09-13T13:46:41;11.02;;;6.18;;
60502;SDS011;51448;51.660;5.824;2022-09-13T13:58:00;7.38;;;4.72;;
60502;SDS011;51448;51.660;5.824;2022-09-13T14:00:51;10.00;;;5.57;;
60502;SDS011;51448;51.660;5.824;2022-09-13T14:06:45;7.38;;;4.13;;
60502;SDS011;51448;51.660;5.824;2022-09-13T14:09:22;7.38;;;4.30;;
60502;SDS011;51448;51.660;5.824;2022-09-13T14:12:12;6.32;;;3.83;;
60502;SDS011;51448;51.660;5.824;2022-09-13T14:15:21;7.28;;;4.38;;
60502;SDS011;51448;51.660;5.824;2022-09-13T14:18:21;7.38;;;4.00;;
60502;SDS011;51448;51.660;5.824;2022-09-13T14:21:03;7.03;;;4.45;;
60502;SDS011;51448;51.660;5.824;2022-09-13T14:23:48;7.55;;;4.78;;
60502;SDS011;51448;51.660;5.824;2022-09-13T14:26:16;9.18;;;4.80;;
60502;SDS011;51448;51.660;5.824;2022-09-13T14:28:43;6.65;;;4.10;;
60502;SDS011;51448;51.660;5.824;2022-09-13T14:31:15;11.10;;;4.50;;
60502;SDS011;51448;51.660;5.824;2022-09-13T14:33:46;8.45;;;4.28;;
60502;SDS011;51448;51.660;5.824;2022-09-13T14:36:18;5.55;;;2.60;;
60502;SDS011;51448;51.660;5.824;2022-09-13T14:38:58;7.47;;;2.67;;
60502;SDS011;51448;51.660;5.824;2022-09-13T14:41:31;7.60;;;3.10;;
60502;SDS011;51448;51.660;5.824;2022-09-13T14:44:13;5.30;;;3.03;;
60502;SDS011;51448;51.660;5.824;2022-09-13T14:46:57;5.40;;;2.40;;
60502;SDS011;51448;51.660;5.824;2022-09-13T14:49:34;7.57;;;2.50;;
60502;SDS011;51448;51.660;5.824;2022-09-13T14:55:29;5.63;;;2.95;;
60502;SDS011;51448;51.660;5.824;2022-09-13T14:58:04;5.85;;;2.83;;
60502;SDS011;51448;51.660;5.824;2022-09-13T15:01:02;6.95;;;3.03;;
60502;SDS011;51448;51.660;5.824;2022-09-13T15:03:42;6.20;;;2.70;;
60502;SDS011;51448;51.660;5.824;2022-09-13T15:06:22;4.97;;;2.53;;
60502;SDS011;51448;51.660;5.824;2022-09-13T15:08:55;5.70;;;2.80;;
60502;SDS011;51448;51.660;5.824;2022-09-13T15:11:37;9.05;;;3.22;;
60502;SDS011;51448;51.660;5.824;2022-09-13T15:14:30;5.10;;;2.10;;
60502;SDS011;51448;51.660;5.824;2022-09-13T15:19:38;6.40;;;2.10;;
60502;SDS011;51448;51.660;5.824;2022-09-13T15:22:20;7.10;;;2.63;;
60502;SDS011;51448;51.660;5.824;2022-09-13T15:24:54;5.25;;;2.88;;
60502;SDS011;51448;51.660;5.824;2022-09-13T15:27:26;5.53;;;2.60;;
60502;SDS011;51448;51.660;5.824;2022-09-13T15:32:34;6.38;;;2.75;;
60502;SDS011;51448;51.660;5.824;2022-09-13T15:35:17;4.40;;;1.80;;
60502;SDS011;51448;51.660;5.824;2022-09-13T15:37:59;4.88;;;2.78;;
60502;SDS011;51448;51.660;5.824;2022-09-13T15:40:56;5.65;;;3.25;;
60502;SDS011;51448;51.660;5.824;2022-09-13T15:43:30;5.63;;;3.10;;
60502;SDS011;51448;51.660;5.824;2022-09-13T15:45:58;5.68;;;2.85;;
60502;SDS011;51448;51.660;5.824;2022-09-13T15:48:29;5.95;;;2.63;;
60502;SDS011;51448;51.660;5.824;2022-09-13T15:51:04;5.25;;;2.80;;
60502;SDS011;51448;51.660;5.824;2022-09-13T15:53:39;5.53;;;2.78;;
60502;SDS011;51448;51.660;5.824;2022-09-13T15:56:12;6.38;;;2.97;;
60502;SDS011;51448;51.660;5.824;2022-09-13T15:58:43;8.15;;;3.03;;
60502;SDS011;51448;51.660;5.824;2022-09-13T16:01:11;6.63;;;3.40;;
60502;SDS011;51448;51.660;5.824;2022-09-13T16:03:40;7.53;;;3.08;;
60502;SDS011;51448;51.660;5.824;2022-09-13T16:06:08;6.70;;;3.30;;
60502;SDS011;51448;51.660;5.824;2022-09-13T16:08:36;5.60;;;3.00;;
60502;SDS011;51448;51.660;5.824;2022-09-13T16:11:05;8.52;;;3.63;;
60502;SDS011;51448;51.660;5.824;2022-09-13T16:13:34;5.47;;;3.10;;
60502;SDS011;51448;51.660;5.824;2022-09-13T16:16:02;8.20;;;3.30;;
60502;SDS011;51448;51.660;5.824;2022-09-13T16:18:33;5.95;;;2.90;;
60502;SDS011;51448;51.660;5.824;2022-09-13T16:21:00;5.82;;;3.08;;
60502;SDS011;51448;51.660;5.824;2022-09-13T16:23:28;6.15;;;3.40;;
60502;SDS011;51448;51.660;5.824;2022-09-13T16:25:56;7.82;;;4.00;;
60502;SDS011;51448;51.660;5.824;2022-09-13T16:28:25;5.93;;;3.55;;
60502;SDS011;51448;51.660;5.824;2022-09-13T16:30:53;5.68;;;3.90;;
60502;SDS011;51448;51.660;5.824;2022-09-13T16:33:21;6.43;;;3.42;;
60502;SDS011;51448;51.660;5.824;2022-09-13T16:35:50;6.70;;;3.50;;
60502;SDS011;51448;51.660;5.824;2022-09-13T16:38:17;6.15;;;3.80;;
60502;SDS011;51448;51.660;5.824;2022-09-13T16:40:44;6.30;;;3.22;;
60502;SDS011;51448;51.660;5.824;2022-09-13T16:43:12;5.65;;;3.03;;
60502;SDS011;51448;51.660;5.824;2022-09-13T16:45:40;8.38;;;3.60;;
60502;SDS011;51448;51.660;5.824;2022-09-13T16:48:08;7.00;;;3.03;;
60502;SDS011;51448;51.660;5.824;2022-09-13T16:50:39;6.80;;;3.03;;
60502;SDS011;51448;51.660;5.824;2022-09-13T16:53:07;8.32;;;2.63;;
60502;SDS011;51448;51.660;5.824;2022-09-13T16:55:35;7.80;;;2.58;;
60502;SDS011;51448;51.660;5.824;2022-09-13T16:58:02;5.43;;;2.25;;
60502;SDS011;51448;51.660;5.824;2022-09-13T17:00:30;5.00;;;2.05;;
60502;SDS011;51448;51.660;5.824;2022-09-13T17:02:57;11.27;;;2.65;;
60502;SDS011;51448;51.660;5.824;2022-09-13T17:05:25;6.88;;;2.80;;
60502;SDS011;51448;51.660;5.824;2022-09-13T17:07:52;6.57;;;2.65;;
60502;SDS011;51448;51.660;5.824;2022-09-13T17:10:19;4.70;;;2.15;;
60502;SDS011;51448;51.660;5.824;2022-09-13T17:12:47;7.45;;;2.33;;
60502;SDS011;51448;51.660;5.824;2022-09-13T17:15:15;8.20;;;2.83;;
60502;SDS011;51448;51.660;5.824;2022-09-13T17:17:43;7.32;;;2.38;;
60502;SDS011;51448;51.660;5.824;2022-09-13T17:20:11;6.30;;;2.65;;
60502;SDS011;51448;51.660;5.824;2022-09-13T17:22:39;5.85;;;2.40;;
60502;SDS011;51448;51.660;5.824;2022-09-13T17:25:07;4.28;;;2.33;;
60502;SDS011;51448;51.660;5.824;2022-09-13T17:27:36;7.70;;;2.88;;
60502;SDS011;51448;51.660;5.824;2022-09-13T17:30:03;7.43;;;2.90;;
60502;SDS011;51448;51.660;5.824;2022-09-13T17:32:32;10.80;;;2.50;;
60502;SDS011;51448;51.660;5.824;2022-09-13T17:34:59;7.00;;;2.80;;
60502;SDS011;51448;51.660;5.824;2022-09-13T17:37:27;6.35;;;2.30;;
60502;SDS011;51448;51.660;5.824;2022-09-13T17:39:54;7.28;;;2.40;;
60502;SDS011;51448;51.660;5.824;2022-09-13T17:42:22;8.90;;;2.30;;
60502;SDS011;51448;51.660;5.824;2022-09-13T17:44:50;8.15;;;2.15;;
60502;SDS011;51448;51.660;5.824;2022-09-13T17:47:17;6.88;;;2.00;;
60502;SDS011;51448;51.660;5.824;2022-09-13T17:49:44;7.78;;;2.05;;
60502;SDS011;51448;51.660;5.824;2022-09-13T17:52:13;6.40;;;2.20;;
60502;SDS011;51448;51.660;5.824;2022-09-13T17:54:40;8.25;;;1.95;;
60502;SDS011;51448;51.660;5.824;2022-09-13T17:57:08;5.70;;;2.10;;
60502;SDS011;51448;51.660;5.824;2022-09-13T17:59:37;7.10;;;1.88;;
60502;SDS011;51448;51.660;5.824;2022-09-13T18:02:05;7.80;;;1.70;;
60502;SDS011;51448;51.660;5.824;2022-09-13T18:04:32;7.72;;;1.75;;
60502;SDS011;51448;51.660;5.824;2022-09-13T18:07:00;3.58;;;1.35;;
60502;SDS011;51448;51.660;5.824;2022-09-13T18:09:27;4.57;;;1.70;;
60502;SDS011;51448;51.660;5.824;2022-09-13T18:11:55;4.85;;;1.30;;
60502;SDS011;51448;51.660;5.824;2022-09-13T18:14:22;4.30;;;1.30;;
60502;SDS011;51448;51.660;5.824;2022-09-13T18:16:52;6.00;;;1.20;;
60502;SDS011;51448;51.660;5.824;2022-09-13T18:19:21;6.20;;;1.48;;
60502;SDS011;51448;51.660;5.824;2022-09-13T18:22:10;4.78;;;1.00;;
60502;SDS011;51448;51.660;5.824;2022-09-13T18:24:37;5.78;;;1.30;;
60502;SDS011;51448;51.660;5.824;2022-09-13T18:27:04;5.93;;;1.30;;
60502;SDS011;51448;51.660;5.824;2022-09-13T18:29:32;5.30;;;1.30;;
60502;SDS011;51448;51.660;5.824;2022-09-13T18:31:59;5.10;;;1.30;;